createdAt,value
2019-03-28T00:00:45.007Z,100.00
2019-03-28T00:03:36.326Z,100.00
2019-03-28T00:06:27.270Z,100.00
2019-03-28T00:09:18.200Z,100.00
2019-03-28T00:12:09.253Z,100.00
2019-03-28T00:15:00.036Z,100.00
2019-03-28T00:17:50.963Z,100.00
2019-03-28T00:20:41.934Z,100.00
2019-03-28T00:23:47.591Z,100.00
2019-03-28T00:26:38.321Z,100.00
2019-03-28T00:29:29.259Z,100.00
2019-03-28T00:32:19.985Z,100.00
2019-03-28T00:35:10.947Z,100.00
2019-03-28T00:38:01.721Z,100.00
2019-03-28T00:40:52.984Z,100.00
2019-03-28T00:43:45.247Z,100.00
2019-03-28T00:46:36.368Z,100.00
2019-03-28T00:49:27.392Z,100.00
2019-03-28T00:52:18.626Z,100.00
2019-03-28T00:55:10.352Z,100.00
2019-03-28T00:58:01.643Z,100.00
2019-03-28T01:00:53.199Z,100.00
2019-03-28T01:03:44.229Z,100.00
2019-03-28T01:06:34.980Z,100.00
2019-03-28T01:09:25.897Z,100.00
2019-03-28T01:12:16.895Z,100.00
2019-03-28T01:15:08.149Z,100.00
2019-03-28T01:17:59.341Z,100.00
2019-03-28T01:20:51.221Z,100.00
2019-03-28T01:23:43.150Z,100.00
2019-03-28T01:26:34.243Z,100.00
2019-03-28T01:29:25.626Z,100.00
2019-03-28T01:32:16.626Z,100.00
2019-03-28T01:35:07.854Z,100.00
2019-03-28T01:37:58.933Z,100.00
2019-03-28T01:40:49.876Z,100.00
2019-03-28T01:43:41.712Z,100.00
2019-03-28T01:46:32.697Z,100.00
2019-03-28T01:49:24.363Z,100.00
2019-03-28T01:52:15.583Z,100.00
2019-03-28T01:55:08.327Z,100.00
2019-03-28T01:57:59.359Z,100.00
2019-03-28T02:00:50.081Z,100.00
2019-03-28T02:03:41.138Z,100.00
2019-03-28T02:06:32.226Z,100.00
2019-03-28T02:09:23.520Z,100.00
2019-03-28T02:12:14.691Z,100.00
2019-03-28T02:15:06.705Z,100.00
2019-03-28T02:17:57.569Z,100.00
2019-03-28T02:20:52.784Z,100.00
2019-03-28T02:23:48.946Z,100.00
2019-03-28T02:26:41.229Z,100.00
2019-03-28T02:29:33.172Z,100.00
2019-03-28T02:32:24.416Z,100.00
2019-03-28T02:35:15.337Z,100.00
2019-03-28T02:38:06.765Z,100.00
2019-03-28T02:40:57.395Z,100.00
2019-03-28T02:43:49.363Z,100.00
2019-03-28T02:46:41.710Z,98.43
2019-03-28T02:49:32.750Z,98.26
2019-03-28T02:52:23.853Z,94.25
2019-03-28T02:55:14.781Z,92.69
2019-03-28T02:58:05.858Z,92.81
2019-03-28T03:00:57.039Z,93.45
2019-03-28T03:03:48.328Z,97.24
2019-03-28T03:06:39.851Z,95.88
2019-03-28T03:09:31.002Z,93.37
2019-03-28T03:12:22.312Z,90.82
2019-03-28T03:15:13.326Z,94.63
2019-03-28T03:18:04.109Z,92.70
2019-03-28T03:20:54.888Z,93.22
2019-03-28T03:23:46.603Z,94.77
2019-03-28T03:26:37.681Z,94.71
2019-03-28T03:29:28.687Z,93.47
2019-03-28T03:32:19.680Z,93.60
2019-03-28T03:35:11.945Z,89.57
2019-03-28T03:38:03.728Z,92.15
2019-03-28T03:40:54.835Z,92.29
2019-03-28T03:43:45.925Z,89.79
2019-03-28T03:46:38.850Z,89.55
2019-03-28T03:49:30.681Z,90.37
2019-03-28T03:52:22.081Z,93.32
2019-03-28T03:55:13.195Z,93.32
2019-03-28T03:58:15.424Z,94.04
2019-03-28T04:00:56.289Z,92.59
2019-03-28T04:03:47.224Z,92.18
2019-03-28T04:06:38.016Z,90.89
2019-03-28T04:09:28.718Z,90.16
2019-03-28T04:12:19.500Z,87.76
2019-03-28T04:15:10.592Z,88.53
2019-03-28T04:18:01.496Z,87.29
2019-03-28T04:20:52.547Z,88.31
2019-03-28T04:23:43.468Z,88.50
2019-03-28T04:26:34.492Z,89.68
2019-03-28T04:29:25.328Z,90.80
2019-03-28T04:32:16.194Z,91.66
2019-03-28T04:35:06.800Z,91.33
2019-03-28T04:37:58.599Z,91.22
2019-03-28T04:40:49.570Z,91.73
2019-03-28T04:43:40.435Z,93.17
2019-03-28T04:46:31.335Z,90.60
2019-03-28T04:49:22.070Z,88.12
2019-03-28T04:52:12.939Z,89.67
2019-03-28T04:55:03.660Z,89.36
2019-03-28T04:57:55.406Z,89.35
2019-03-28T05:00:46.578Z,88.33
2019-03-28T05:03:37.266Z,87.76
2019-03-28T05:06:28.247Z,90.92
2019-03-28T05:09:19.279Z,90.63
2019-03-28T05:12:10.505Z,91.79
2019-03-28T05:15:01.533Z,88.60
2019-03-28T05:17:52.423Z,89.95
2019-03-28T05:20:43.233Z,89.19
2019-03-28T05:23:34.038Z,89.14
2019-03-28T05:26:24.852Z,89.49
2019-03-28T05:29:15.795Z,87.32
2019-03-28T05:32:06.631Z,87.74
2019-03-28T05:34:57.515Z,87.23
2019-03-28T05:37:49.455Z,86.19
2019-03-28T05:40:40.409Z,86.31
2019-03-28T05:43:31.180Z,86.54
2019-03-28T05:46:22.715Z,86.55
2019-03-28T05:49:13.717Z,86.79
2019-03-28T05:52:04.664Z,87.01
2019-03-28T05:54:55.510Z,86.59
2019-03-28T05:57:46.561Z,85.75
2019-03-28T06:00:40.262Z,84.16
2019-03-28T06:03:31.314Z,84.98
2019-03-28T06:06:22.274Z,85.87
2019-03-28T06:09:13.349Z,85.02
2019-03-28T06:12:04.435Z,84.11
2019-03-28T06:14:55.346Z,84.57
2019-03-28T06:17:46.294Z,83.65
2019-03-28T06:20:37.049Z,83.49
2019-03-28T06:23:28.016Z,83.15
2019-03-28T06:26:18.932Z,86.01
2019-03-28T06:29:09.624Z,85.08
2019-03-28T06:32:00.573Z,85.31
2019-03-28T06:34:52.288Z,87.53
2019-03-28T06:37:43.092Z,88.84
2019-03-28T06:40:33.921Z,88.62
2019-03-28T06:43:24.967Z,88.70
2019-03-28T06:46:16.162Z,88.17
2019-03-28T06:49:06.872Z,90.51
2019-03-28T06:51:57.762Z,90.01
2019-03-28T06:54:48.631Z,88.40
2019-03-28T06:57:39.615Z,87.84
2019-03-28T07:00:30.797Z,84.23
2019-03-28T07:03:21.964Z,83.77
2019-03-28T07:06:13.132Z,83.38
2019-03-28T07:09:04.289Z,86.50
2019-03-28T07:11:55.390Z,87.50
2019-03-28T07:14:46.150Z,86.86
2019-03-28T07:17:37.025Z,87.25
2019-03-28T07:20:27.953Z,86.26
2019-03-28T07:23:18.872Z,86.25
2019-03-28T07:26:09.749Z,85.61
2019-03-28T07:29:00.713Z,84.20
2019-03-28T07:31:51.598Z,81.02
2019-03-28T07:34:42.552Z,85.58
2019-03-28T07:37:33.368Z,84.60
2019-03-28T07:40:24.005Z,87.14
2019-03-28T07:43:14.875Z,82.59
2019-03-28T07:46:05.551Z,81.93
2019-03-28T07:48:56.580Z,82.70
2019-03-28T07:51:47.664Z,83.84
2019-03-28T07:54:39.332Z,80.45
2019-03-28T07:57:31.578Z,80.67
2019-03-28T08:00:22.404Z,81.10
2019-03-28T08:03:13.333Z,83.82
2019-03-28T08:06:04.228Z,79.60
2019-03-28T08:08:57.807Z,80.04
2019-03-28T08:11:48.720Z,81.43
2019-03-28T08:14:39.564Z,81.15
2019-03-28T08:17:30.385Z,81.95
2019-03-28T08:20:21.414Z,81.25
2019-03-28T08:23:12.436Z,82.40
2019-03-28T08:26:03.729Z,81.45
2019-03-28T08:28:54.597Z,81.22
2019-03-28T08:31:47.014Z,82.77
2019-03-28T08:34:37.788Z,83.09
2019-03-28T08:37:28.750Z,85.10
2019-03-28T08:40:40.602Z,81.43
2019-03-28T08:43:31.227Z,80.31
2019-03-28T08:46:22.086Z,83.03
2019-03-28T08:49:12.991Z,84.96
2019-03-28T08:52:03.804Z,82.12
2019-03-28T08:54:54.833Z,82.43
2019-03-28T08:57:45.799Z,81.42
2019-03-28T09:03:44.886Z,79.85
2019-03-28T09:06:36.234Z,82.71
2019-03-28T09:09:27.408Z,83.93
2019-03-28T09:12:18.244Z,80.97
2019-03-28T09:15:11.944Z,82.76
2019-03-28T09:18:03.039Z,79.75
2019-03-28T09:20:53.692Z,77.22
2019-03-28T09:23:44.738Z,79.81
2019-03-28T09:26:35.780Z,78.79
2019-03-28T09:29:26.861Z,78.95
2019-03-28T09:32:17.885Z,75.43
2019-03-28T09:35:09.201Z,78.65
2019-03-28T09:38:00.068Z,78.79
2019-03-28T09:40:51.036Z,78.50
2019-03-28T09:43:54.537Z,77.68
2019-03-28T09:46:34.225Z,77.22
2019-03-28T09:49:25.060Z,78.64
2019-03-28T09:52:16.465Z,76.61
2019-03-28T09:55:07.401Z,76.01
2019-03-28T09:57:58.879Z,74.21
2019-03-28T10:01:02.191Z,76.98
2019-03-28T10:03:43.089Z,75.08
2019-03-28T10:06:33.966Z,73.14
2019-03-28T10:09:25.411Z,78.13
2019-03-28T10:12:18.851Z,73.69
2019-03-28T10:15:10.065Z,72.74
2019-03-28T10:18:00.880Z,72.15
2019-03-28T10:20:51.788Z,75.67
2019-03-28T10:23:42.383Z,74.13
2019-03-28T10:26:33.312Z,71.61
2019-03-28T10:29:24.251Z,75.98
2019-03-28T10:32:15.203Z,75.77
2019-03-28T10:35:07.068Z,75.54
2019-03-28T10:37:58.123Z,73.81
2019-03-28T10:40:49.148Z,73.12
2019-03-28T10:43:40.438Z,73.96
2019-03-28T10:46:31.396Z,63.07
2019-03-28T10:49:22.484Z,66.00
2019-03-28T10:52:13.424Z,69.29
2019-03-28T10:55:04.780Z,67.28
2019-03-28T10:57:55.687Z,61.42
2019-03-28T11:00:46.876Z,64.55
2019-03-28T11:03:37.591Z,67.39
2019-03-28T11:06:28.628Z,67.92
2019-03-28T11:09:19.261Z,67.63
2019-03-28T11:12:10.196Z,66.11
2019-03-28T11:15:01.082Z,69.49
2019-03-28T11:17:51.712Z,68.49
2019-03-28T11:20:42.497Z,68.50
2019-03-28T11:23:33.660Z,70.37
2019-03-28T11:26:24.664Z,67.89
2019-03-28T11:29:15.672Z,68.50
2019-03-28T11:32:06.510Z,69.09
2019-03-28T11:34:57.695Z,68.90
2019-03-28T11:37:48.645Z,69.56
2019-03-28T11:40:42.734Z,69.75
2019-03-28T11:43:32.413Z,70.02
2019-03-28T11:46:23.422Z,68.81
2019-03-28T11:49:14.344Z,68.76
2019-03-28T11:52:05.262Z,65.48
2019-03-28T11:54:56.254Z,65.54
2019-03-28T11:57:47.214Z,66.51
2019-03-28T12:00:38.034Z,64.58
2019-03-28T12:03:30.780Z,64.96
2019-03-28T12:06:21.622Z,65.23
2019-03-28T12:09:12.503Z,67.03
2019-03-28T12:12:03.452Z,64.07
2019-03-28T12:14:54.438Z,62.01
2019-03-28T12:17:45.311Z,60.77
2019-03-28T12:20:36.230Z,61.67
2019-03-28T12:23:26.932Z,58.02
2019-03-28T12:26:17.995Z,55.90
2019-03-28T12:29:08.818Z,56.85
2019-03-28T12:32:13.113Z,58.09
2019-03-28T12:34:52.630Z,54.86
2019-03-28T12:37:43.658Z,54.35
2019-03-28T12:40:34.596Z,51.98
2019-03-28T12:43:25.409Z,49.87
2019-03-28T12:46:16.207Z,53.38
2019-03-28T12:49:07.096Z,51.13
2019-03-28T12:51:57.885Z,53.49
2019-03-28T12:54:48.591Z,52.75
2019-03-28T12:57:39.519Z,53.12
2019-03-28T13:00:36.027Z,54.00
2019-03-28T13:03:29.764Z,56.05
2019-03-28T13:06:19.050Z,54.56
2019-03-28T13:09:11.128Z,53.06
2019-03-28T13:12:01.962Z,52.31
2019-03-28T13:14:52.824Z,52.37
2019-03-28T13:17:43.791Z,54.99
2019-03-28T13:20:34.644Z,54.59
2019-03-28T13:23:25.332Z,55.93
2019-03-28T13:26:16.330Z,53.94
2019-03-28T13:29:07.348Z,53.55
2019-03-28T13:31:58.087Z,54.54
2019-03-28T13:34:49.070Z,55.21
2019-03-28T13:37:39.808Z,55.18
2019-03-28T13:40:31.677Z,56.16
2019-03-28T13:43:22.574Z,56.88
2019-03-28T13:46:13.282Z,59.02
2019-03-28T13:49:04.560Z,54.26
2019-03-28T13:51:55.607Z,55.71
2019-03-28T13:54:46.562Z,53.22
2019-03-28T13:57:37.640Z,53.87
2019-03-28T14:00:32.674Z,55.85
2019-03-28T14:03:27.415Z,56.25
2019-03-28T14:06:18.258Z,56.53
2019-03-28T14:09:09.360Z,56.20
2019-03-28T14:12:00.337Z,53.88
2019-03-28T14:14:51.419Z,55.31
2019-03-28T14:17:43.474Z,57.45
2019-03-28T14:20:34.500Z,58.08
2019-03-28T14:23:25.483Z,57.35
2019-03-28T14:26:16.407Z,55.49
2019-03-28T14:29:07.246Z,58.18
2019-03-28T14:31:59.887Z,59.87
2019-03-28T14:34:50.236Z,58.39
2019-03-28T14:37:41.223Z,56.75
2019-03-28T14:40:32.073Z,59.82
2019-03-28T14:43:23.051Z,56.31
2019-03-28T14:46:13.840Z,61.73
2019-03-28T14:49:06.754Z,63.93
2019-03-28T14:51:57.649Z,56.75
2019-03-28T14:54:48.556Z,54.63
2019-03-28T14:57:39.267Z,57.63
2019-03-28T15:00:55.383Z,56.31
2019-03-28T15:03:46.157Z,54.48
2019-03-28T15:06:37.120Z,56.36
2019-03-28T15:09:27.996Z,53.71
2019-03-28T15:12:18.723Z,52.35
2019-03-28T15:15:10.636Z,55.86
2019-03-28T15:18:01.227Z,54.09
2019-03-28T15:20:51.796Z,49.72
2019-03-28T15:23:42.409Z,50.57
2019-03-28T15:26:33.269Z,51.09
2019-03-28T15:29:23.896Z,50.24
2019-03-28T15:32:14.658Z,54.15
2019-03-28T15:35:05.597Z,50.54
2019-03-28T15:37:56.409Z,53.30
2019-03-28T15:40:47.672Z,49.17
2019-03-28T15:43:38.894Z,51.97
2019-03-28T15:46:29.658Z,53.80
2019-03-28T15:49:21.625Z,52.15
2019-03-28T15:52:12.555Z,49.04
2019-03-28T15:55:03.551Z,51.55
2019-03-28T15:57:54.475Z,54.65
2019-03-28T16:00:45.239Z,50.23
2019-03-28T16:03:36.150Z,50.11
2019-03-28T16:06:26.994Z,48.69
2019-03-28T16:09:20.231Z,52.06
2019-03-28T16:12:11.286Z,54.90
2019-03-28T16:15:02.219Z,53.09
2019-03-28T16:17:53.067Z,52.37
2019-03-28T16:20:44.106Z,54.82
2019-03-28T16:23:34.843Z,54.09
2019-03-28T16:26:25.790Z,54.22
2019-03-28T16:29:16.689Z,53.39
2019-03-28T16:32:07.627Z,56.54
2019-03-28T16:34:58.489Z,56.69
2019-03-28T16:37:50.965Z,56.42
2019-03-28T16:40:41.825Z,60.00
2019-03-28T16:43:34.174Z,55.88
2019-03-28T16:46:25.535Z,56.68
2019-03-28T16:49:16.811Z,53.39
2019-03-28T16:52:07.825Z,52.06
2019-03-28T16:54:58.743Z,53.94
2019-03-28T16:57:49.842Z,55.96
2019-03-28T17:00:40.858Z,56.98
2019-03-28T17:03:31.695Z,54.94
2019-03-28T17:06:22.374Z,52.40
2019-03-28T17:09:13.253Z,50.69
2019-03-28T17:12:03.881Z,50.03
2019-03-28T17:14:55.093Z,52.73
2019-03-28T17:17:46.013Z,54.12
2019-03-28T17:20:37.007Z,50.67
2019-03-28T17:23:27.916Z,50.42
2019-03-28T17:26:18.794Z,51.49
2019-03-28T17:29:09.916Z,49.70
2019-03-28T17:32:00.803Z,48.81
2019-03-28T17:34:51.910Z,50.83
2019-03-28T17:37:42.978Z,50.37
2019-03-28T17:40:36.737Z,48.87
2019-03-28T17:43:26.677Z,47.68
2019-03-28T17:46:18.364Z,49.28
2019-03-28T17:49:09.707Z,49.86
2019-03-28T17:52:01.705Z,49.80
2019-03-28T17:54:52.767Z,47.04
2019-03-28T17:57:44.723Z,47.94
2019-03-28T18:00:35.793Z,47.77
2019-03-28T18:03:31.349Z,47.86
2019-03-28T18:06:20.078Z,50.01
2019-03-28T18:09:11.650Z,52.23
2019-03-28T18:12:02.758Z,50.50
2019-03-28T18:14:53.886Z,49.95
2019-03-28T18:17:44.650Z,47.87
2019-03-28T18:20:35.453Z,48.49
2019-03-28T18:23:26.087Z,49.16
2019-03-28T18:26:17.390Z,49.56
2019-03-28T18:29:08.049Z,48.42
2019-03-28T18:31:59.104Z,48.05
2019-03-28T18:35:04.670Z,47.21
2019-03-28T18:37:42.770Z,47.62
2019-03-28T18:40:33.660Z,46.76
2019-03-28T18:43:24.628Z,47.82
2019-03-28T18:46:15.482Z,47.55
2019-03-28T18:49:06.442Z,48.80
2019-03-28T18:51:57.268Z,49.35
2019-03-28T18:54:48.243Z,48.77
2019-03-28T18:57:39.819Z,47.41
2019-03-28T19:00:30.732Z,49.65
2019-03-28T19:03:21.844Z,50.32
2019-03-28T19:06:14.924Z,49.04
2019-03-28T19:09:07.332Z,49.52
2019-03-28T19:11:58.606Z,48.78
2019-03-28T19:14:49.610Z,49.09
2019-03-28T19:17:40.720Z,48.71
2019-03-28T19:20:33.221Z,51.43
2019-03-28T19:23:24.972Z,51.04
2019-03-28T19:26:16.028Z,50.21
2019-03-28T19:29:07.083Z,52.58
2019-03-28T19:31:57.625Z,52.43
2019-03-28T19:34:48.888Z,51.64
2019-03-28T19:37:39.525Z,49.34
2019-03-28T19:40:30.491Z,51.96
2019-03-28T19:43:22.927Z,52.72
2019-03-28T19:46:13.890Z,51.82
2019-03-28T19:49:05.755Z,50.03
2019-03-28T19:51:56.991Z,51.45
2019-03-28T19:54:47.835Z,51.88
2019-03-28T19:57:38.996Z,51.54
2019-03-28T20:00:29.814Z,50.23
2019-03-28T20:03:23.285Z,51.31
2019-03-28T20:06:21.997Z,51.51
2019-03-28T20:09:16.116Z,48.97
2019-03-28T20:12:03.265Z,51.07
2019-03-28T20:14:51.852Z,46.85
2019-03-28T20:17:43.233Z,49.73
2019-03-28T20:20:34.754Z,48.13
2019-03-28T20:23:25.685Z,48.95
2019-03-28T20:26:19.524Z,51.44
2019-03-28T20:29:09.053Z,52.13
2019-03-28T20:31:59.856Z,53.98
2019-03-28T20:34:50.752Z,51.00
2019-03-28T20:37:41.639Z,50.44
2019-03-28T20:40:32.658Z,51.21
2019-03-28T20:43:24.025Z,51.19
2019-03-28T20:46:15.063Z,53.15
2019-03-28T20:49:06.582Z,54.60
2019-03-28T20:51:57.631Z,53.62
2019-03-28T20:54:48.438Z,54.53
2019-03-28T20:57:40.877Z,52.33
2019-03-28T21:00:38.917Z,51.46
2019-03-28T21:03:29.998Z,51.50
2019-03-28T21:06:20.714Z,52.85
2019-03-28T21:09:11.608Z,54.30
2019-03-28T21:12:02.543Z,54.48
2019-03-28T21:14:55.720Z,55.88
2019-03-28T21:17:46.555Z,52.81
2019-03-28T21:20:37.536Z,53.20
2019-03-28T21:23:28.757Z,54.71
2019-03-28T21:26:19.841Z,53.97
2019-03-28T21:29:14.747Z,54.55
2019-03-28T21:32:05.598Z,52.72
2019-03-28T21:34:56.758Z,54.18
2019-03-28T21:37:47.593Z,54.39
2019-03-28T21:40:38.761Z,53.11
2019-03-28T21:43:30.799Z,51.53
2019-03-28T21:46:22.196Z,49.46
2019-03-28T21:49:13.205Z,51.10
2019-03-28T21:52:03.909Z,51.83
2019-03-28T21:54:54.858Z,52.62
2019-03-28T21:57:45.812Z,52.62
2019-03-28T22:00:36.717Z,51.98
2019-03-28T22:03:27.828Z,50.73
2019-03-28T22:06:18.937Z,49.10
2019-03-28T22:09:09.923Z,49.52
2019-03-28T22:12:02.820Z,50.92
2019-03-28T22:14:53.956Z,51.75
2019-03-28T22:17:44.888Z,50.73
2019-03-28T22:20:35.777Z,47.99
2019-03-28T22:23:26.537Z,49.33
2019-03-28T22:26:17.132Z,48.69
2019-03-28T22:29:08.079Z,49.25
2019-03-28T22:31:59.245Z,49.80
2019-03-28T22:34:50.255Z,49.41
2019-03-28T22:37:41.397Z,52.08
2019-03-28T22:40:32.340Z,50.55
2019-03-28T22:43:23.199Z,46.65
2019-03-28T22:46:13.973Z,51.41
2019-03-28T22:49:05.833Z,52.03
2019-03-28T22:51:56.767Z,53.86
2019-03-28T22:54:47.692Z,54.22
2019-03-28T22:57:38.587Z,53.50
2019-03-28T23:01:03.840Z,53.79
2019-03-28T23:03:55.021Z,56.08
2019-03-28T23:06:45.784Z,55.81
2019-03-28T23:09:36.641Z,54.19
2019-03-28T23:12:27.594Z,50.17
2019-03-28T23:15:21.783Z,53.82
2019-03-28T23:18:11.292Z,50.74
2019-03-28T23:21:02.165Z,52.06
2019-03-28T23:23:53.082Z,51.31
2019-03-28T23:26:43.845Z,49.53
2019-03-28T23:29:34.647Z,54.09
2019-03-28T23:32:25.452Z,51.10
2019-03-28T23:35:16.422Z,51.02
2019-03-28T23:38:07.295Z,53.54
2019-03-28T23:40:58.174Z,47.97
2019-03-28T23:43:49.370Z,51.07
2019-03-28T23:46:40.366Z,51.87
2019-03-28T23:49:31.373Z,51.81
2019-03-28T23:52:22.195Z,51.89
2019-03-28T23:55:13.026Z,50.65
2019-03-28T23:58:05.005Z,49.52
